sensor_id;sensor_type;location;lat;lon;timestamp;P1;durP1;ratioP1;P2;durP2;ratioP2
31336;SDS011;22846;42.654;23.314;2022-09-03T00:00:40;7.55;;;4.60;;
31336;SDS011;22846;42.654;23.314;2022-09-03T00:09:02;8.77;;;4.57;;
31336;SDS011;22846;42.654;23.314;2022-09-03T00:14:23;7.75;;;4.90;;
31336;SDS011;22846;42.654;23.314;2022-09-03T00:16:59;7.72;;;4.50;;
31336;SDS011;22846;42.654;23.314;2022-09-03T00:19:37;7.10;;;4.80;;
31336;SDS011;22846;42.654;23.314;2022-09-03T00:22:09;8.38;;;4.10;;
31336;SDS011;22846;42.654;23.314;2022-09-03T00:24:40;8.38;;;4.47;;
31336;SDS011;22846;42.654;23.314;2022-09-03T00:27:12;6.43;;;4.30;;
31336;SDS011;22846;42.654;23.314;2022-09-03T00:32:28;5.80;;;3.90;;
31336;SDS011;22846;42.654;23.314;2022-09-03T00:35:04;7.55;;;4.75;;
31336;SDS011;22846;42.654;23.314;2022-09-03T00:37:41;5.57;;;4.03;;
31336;SDS011;22846;42.654;23.314;2022-09-03T00:40:09;6.32;;;3.90;;
31336;SDS011;22846;42.654;23.314;2022-09-03T00:42:53;6.55;;;4.00;;
31336;SDS011;22846;42.654;23.314;2022-09-03T00:45:38;8.50;;;3.95;;
31336;SDS011;22846;42.654;23.314;2022-09-03T00:48:23;7.63;;;4.00;;
31336;SDS011;22846;42.654;23.314;2022-09-03T00:58:56;7.60;;;4.32;;
31336;SDS011;22846;42.654;23.314;2022-09-03T01:29:19;6.75;;;3.80;;
31336;SDS011;22846;42.654;23.314;2022-09-03T01:32:14;6.47;;;4.07;;
31336;SDS011;22846;42.654;23.314;2022-09-03T01:34:45;4.90;;;3.92;;
31336;SDS011;22846;42.654;23.314;2022-09-03T01:37:44;5.20;;;3.58;;
31336;SDS011;22846;42.654;23.314;2022-09-03T01:48:02;6.65;;;3.78;;
31336;SDS011;22846;42.654;23.314;2022-09-03T01:55:35;5.63;;;3.65;;
31336;SDS011;22846;42.654;23.314;2022-09-03T02:01:18;5.45;;;3.58;;
31336;SDS011;22846;42.654;23.314;2022-09-03T02:03:57;5.50;;;3.65;;
31336;SDS011;22846;42.654;23.314;2022-09-03T02:06:24;5.93;;;3.78;;
31336;SDS011;22846;42.654;23.314;2022-09-03T02:08:56;3.83;;;3.22;;
31336;SDS011;22846;42.654;23.314;2022-09-03T02:11:21;4.63;;;3.38;;
31336;SDS011;22846;42.654;23.314;2022-09-03T02:13:49;5.63;;;3.78;;
31336;SDS011;22846;42.654;23.314;2022-09-03T02:16:20;5.07;;;3.13;;
31336;SDS011;22846;42.654;23.314;2022-09-03T02:18:55;4.32;;;3.60;;
31336;SDS011;22846;42.654;23.314;2022-09-03T02:21:26;5.00;;;3.28;;
31336;SDS011;22846;42.654;23.314;2022-09-03T02:23:55;4.15;;;3.53;;
31336;SDS011;22846;42.654;23.314;2022-09-03T02:26:21;4.97;;;3.40;;
31336;SDS011;22846;42.654;23.314;2022-09-03T02:28:48;4.43;;;3.38;;
31336;SDS011;22846;42.654;23.314;2022-09-03T02:31:16;4.80;;;3.45;;
31336;SDS011;22846;42.654;23.314;2022-09-03T02:33:43;4.28;;;3.50;;
31336;SDS011;22846;42.654;23.314;2022-09-03T02:36:11;4.07;;;3.33;;
31336;SDS011;22846;42.654;23.314;2022-09-03T02:38:42;4.53;;;3.53;;
31336;SDS011;22846;42.654;23.314;2022-09-03T02:41:08;5.93;;;3.25;;
31336;SDS011;22846;42.654;23.314;2022-09-03T02:46:13;5.75;;;3.85;;
31336;SDS011;22846;42.654;23.314;2022-09-03T02:48:42;4.47;;;3.30;;
31336;SDS011;22846;42.654;23.314;2022-09-03T02:51:08;3.42;;;3.13;;
31336;SDS011;22846;42.654;23.314;2022-09-03T02:53:33;6.72;;;3.78;;
31336;SDS011;22846;42.654;23.314;2022-09-03T02:55:59;3.42;;;2.95;;
31336;SDS011;22846;42.654;23.314;2022-09-03T02:58:25;4.80;;;3.67;;
31336;SDS011;22846;42.654;23.314;2022-09-03T03:00:52;3.80;;;3.20;;
31336;SDS011;22846;42.654;23.314;2022-09-03T03:03:18;3.95;;;3.55;;
31336;SDS011;22846;42.654;23.314;2022-09-03T03:05:44;3.97;;;3.58;;
31336;SDS011;22846;42.654;23.314;2022-09-03T03:08:14;3.83;;;3.08;;
31336;SDS011;22846;42.654;23.314;2022-09-03T03:10:41;4.70;;;3.80;;
31336;SDS011;22846;42.654;23.314;2022-09-03T03:13:10;4.93;;;3.25;;
31336;SDS011;22846;42.654;23.314;2022-09-03T03:15:36;4.60;;;3.45;;
31336;SDS011;22846;42.654;23.314;2022-09-03T03:18:01;4.30;;;3.20;;
31336;SDS011;22846;42.654;23.314;2022-09-03T03:20:27;4.32;;;3.30;;
31336;SDS011;22846;42.654;23.314;2022-09-03T03:22:53;4.07;;;3.38;;
31336;SDS011;22846;42.654;23.314;2022-09-03T03:25:18;4.53;;;3.80;;
31336;SDS011;22846;42.654;23.314;2022-09-03T03:27:44;4.45;;;3.72;;
31336;SDS011;22846;42.654;23.314;2022-09-03T03:30:10;3.83;;;3.35;;
31336;SDS011;22846;42.654;23.314;2022-09-03T03:32:36;4.43;;;3.65;;
31336;SDS011;22846;42.654;23.314;2022-09-03T03:35:03;5.25;;;3.80;;
31336;SDS011;22846;42.654;23.314;2022-09-03T03:37:30;4.72;;;3.97;;
31336;SDS011;22846;42.654;23.314;2022-09-03T03:39:56;4.95;;;3.60;;
31336;SDS011;22846;42.654;23.314;2022-09-03T03:42:21;4.45;;;3.45;;
31336;SDS011;22846;42.654;23.314;2022-09-03T03:44:47;5.35;;;3.72;;
31336;SDS011;22846;42.654;23.314;2022-09-03T03:47:12;4.35;;;3.40;;
31336;SDS011;22846;42.654;23.314;2022-09-03T03:49:37;4.13;;;3.55;;
31336;SDS011;22846;42.654;23.314;2022-09-03T03:52:03;4.65;;;4.10;;
31336;SDS011;22846;42.654;23.314;2022-09-03T03:54:29;4.60;;;3.92;;
31336;SDS011;22846;42.654;23.314;2022-09-03T03:56:54;5.32;;;3.90;;
31336;SDS011;22846;42.654;23.314;2022-09-03T03:59:20;4.22;;;3.42;;
31336;SDS011;22846;42.654;23.314;2022-09-03T04:01:46;3.47;;;3.17;;
31336;SDS011;22846;42.654;23.314;2022-09-03T04:04:14;4.55;;;3.63;;
31336;SDS011;22846;42.654;23.314;2022-09-03T04:06:41;4.82;;;3.60;;
31336;SDS011;22846;42.654;23.314;2022-09-03T04:09:06;5.63;;;3.88;;
31336;SDS011;22846;42.654;23.314;2022-09-03T04:11:31;4.07;;;3.53;;
31336;SDS011;22846;42.654;23.314;2022-09-03T04:13:57;5.07;;;3.33;;
31336;SDS011;22846;42.654;23.314;2022-09-03T04:16:26;8.05;;;3.90;;
31336;SDS011;22846;42.654;23.314;2022-09-03T04:18:52;5.00;;;3.80;;
31336;SDS011;22846;42.654;23.314;2022-09-03T04:21:20;4.20;;;3.33;;
31336;SDS011;22846;42.654;23.314;2022-09-03T04:23:53;10.20;;;3.65;;
31336;SDS011;22846;42.654;23.314;2022-09-03T04:26:23;4.10;;;3.58;;
31336;SDS011;22846;42.654;23.314;2022-09-03T04:28:52;4.55;;;3.47;;
31336;SDS011;22846;42.654;23.314;2022-09-03T04:31:19;3.90;;;3.42;;
31336;SDS011;22846;42.654;23.314;2022-09-03T04:33:45;5.97;;;3.50;;
31336;SDS011;22846;42.654;23.314;2022-09-03T04:36:12;4.75;;;3.78;;
31336;SDS011;22846;42.654;23.314;2022-09-03T04:38:42;6.50;;;3.80;;
31336;SDS011;22846;42.654;23.314;2022-09-03T04:41:10;4.30;;;3.28;;
31336;SDS011;22846;42.654;23.314;2022-09-03T04:43:36;3.65;;;3.20;;
31336;SDS011;22846;42.654;23.314;2022-09-03T04:46:03;5.13;;;3.60;;
31336;SDS011;22846;42.654;23.314;2022-09-03T04:48:31;5.50;;;3.65;;
31336;SDS011;22846;42.654;23.314;2022-09-03T04:51:05;4.07;;;3.63;;
31336;SDS011;22846;42.654;23.314;2022-09-03T04:53:33;4.20;;;3.75;;
31336;SDS011;22846;42.654;23.314;2022-09-03T04:55:59;5.43;;;3.67;;
31336;SDS011;22846;42.654;23.314;2022-09-03T04:58:26;3.83;;;3.38;;
31336;SDS011;22846;42.654;23.314;2022-09-03T05:00:52;3.55;;;3.20;;
31336;SDS011;22846;42.654;23.314;2022-09-03T05:03:17;4.45;;;3.15;;
31336;SDS011;22846;42.654;23.314;2022-09-03T05:05:50;4.22;;;3.83;;
31336;SDS011;22846;42.654;23.314;2022-09-03T05:08:20;3.65;;;3.30;;
31336;SDS011;22846;42.654;23.314;2022-09-03T05:10:46;4.10;;;3.50;;
31336;SDS011;22846;42.654;23.314;2022-09-03T05:13:12;3.88;;;3.42;;
31336;SDS011;22846;42.654;23.314;2022-09-03T05:15:38;5.10;;;3.40;;
31336;SDS011;22846;42.654;23.314;2022-09-03T05:18:04;4.40;;;3.35;;
31336;SDS011;22846;42.654;23.314;2022-09-03T05:20:30;4.38;;;3.60;;
31336;SDS011;22846;42.654;23.314;2022-09-03T05:22:56;3.90;;;3.50;;
31336;SDS011;22846;42.654;23.314;2022-09-03T05:25:26;4.65;;;3.70;;
31336;SDS011;22846;42.654;23.314;2022-09-03T05:27:52;3.95;;;3.42;;
31336;SDS011;22846;42.654;23.314;2022-09-03T05:30:18;3.47;;;3.17;;
31336;SDS011;22846;42.654;23.314;2022-09-03T05:32:46;4.43;;;3.30;;
31336;SDS011;22846;42.654;23.314;2022-09-03T05:35:12;4.03;;;3.35;;
31336;SDS011;22846;42.654;23.314;2022-09-03T05:37:37;3.92;;;3.40;;
31336;SDS011;22846;42.654;23.314;2022-09-03T05:40:03;4.47;;;3.67;;
31336;SDS011;22846;42.654;23.314;2022-09-03T05:42:29;3.97;;;3.30;;
31336;SDS011;22846;42.654;23.314;2022-09-03T05:44:56;3.95;;;3.35;;
31336;SDS011;22846;42.654;23.314;2022-09-03T05:47:22;4.00;;;3.60;;
31336;SDS011;22846;42.654;23.314;2022-09-03T05:49:47;3.92;;;3.50;;
31336;SDS011;22846;42.654;23.314;2022-09-03T05:52:13;5.38;;;3.22;;
31336;SDS011;22846;42.654;23.314;2022-09-03T05:54:39;3.47;;;3.13;;
31336;SDS011;22846;42.654;23.314;2022-09-03T05:57:04;4.30;;;3.47;;
31336;SDS011;22846;42.654;23.314;2022-09-03T05:59:30;4.57;;;3.30;;
31336;SDS011;22846;42.654;23.314;2022-09-03T06:01:55;3.80;;;3.40;;
31336;SDS011;22846;42.654;23.314;2022-09-03T06:04:21;5.72;;;3.42;;
31336;SDS011;22846;42.654;23.314;2022-09-03T06:06:46;4.55;;;3.20;;
31336;SDS011;22846;42.654;23.314;2022-09-03T06:09:13;5.20;;;3.55;;
31336;SDS011;22846;42.654;23.314;2022-09-03T06:11:41;3.95;;;3.13;;
31336;SDS011;22846;42.654;23.314;2022-09-03T06:14:08;3.97;;;3.13;;
31336;SDS011;22846;42.654;23.314;2022-09-03T06:16:39;3.45;;;3.15;;
31336;SDS011;22846;42.654;23.314;2022-09-03T06:19:06;3.42;;;3.13;;
31336;SDS011;22846;42.654;23.314;2022-09-03T06:21:37;3.88;;;3.30;;
31336;SDS011;22846;42.654;23.314;2022-09-03T06:24:07;3.78;;;3.22;;
31336;SDS011;22846;42.654;23.314;2022-09-03T06:26:33;3.70;;;3.05;;
31336;SDS011;22846;42.654;23.314;2022-09-03T06:28:59;3.50;;;3.10;;
31336;SDS011;22846;42.654;23.314;2022-09-03T06:31:24;6.50;;;3.13;;
31336;SDS011;22846;42.654;23.314;2022-09-03T06:33:50;4.60;;;3.13;;
31336;SDS011;22846;42.654;23.314;2022-09-03T06:36:18;3.50;;;3.15;;
31336;SDS011;22846;42.654;23.314;2022-09-03T06:38:45;3.33;;;2.97;;
31336;SDS011;22846;42.654;23.314;2022-09-03T06:41:13;3.35;;;2.85;;
31336;SDS011;22846;42.654;23.314;2022-09-03T06:43:47;5.20;;;3.33;;
31336;SDS011;22846;42.654;23.314;2022-09-03T06:46:15;3.58;;;3.28;;
31336;SDS011;22846;42.654;23.314;2022-09-03T06:48:42;3.78;;;3.33;;
31336;SDS011;22846;42.654;23.314;2022-09-03T06:51:10;4.25;;;3.40;;
31336;SDS011;22846;42.654;23.314;2022-09-03T06:53:41;3.83;;;3.42;;
31336;SDS011;22846;42.654;23.314;2022-09-03T06:56:12;3.92;;;3.40;;
31336;SDS011;22846;42.654;23.314;2022-09-03T06:58:43;3.80;;;3.40;;
31336;SDS011;22846;42.654;23.314;2022-09-03T07:03:40;3.85;;;3.40;;
31336;SDS011;22846;42.654;23.314;2022-09-03T07:06:07;3.92;;;3.38;;
31336;SDS011;22846;42.654;23.314;2022-09-03T07:08:36;3.88;;;3.33;;
31336;SDS011;22846;42.654;23.314;2022-09-03T07:11:03;4.63;;;3.40;;
31336;SDS011;22846;42.654;23.314;2022-09-03T07:13:37;3.03;;;2.72;;
31336;SDS011;22846;42.654;23.314;2022-09-03T07:16:06;4.17;;;3.43;;
31336;SDS011;22846;42.654;23.314;2022-09-03T07:18:33;3.22;;;2.90;;
31336;SDS011;22846;42.654;23.314;2022-09-03T07:21:00;3.72;;;3.33;;
31336;SDS011;22846;42.654;23.314;2022-09-03T07:23:28;3.22;;;2.92;;
31336;SDS011;22846;42.654;23.314;2022-09-03T07:25:58;3.80;;;3.40;;
31336;SDS011;22846;42.654;23.314;2022-09-03T07:28:26;4.50;;;3.30;;
31336;SDS011;22846;42.654;23.314;2022-09-03T07:30:53;4.10;;;3.00;;
31336;SDS011;22846;42.654;23.314;2022-09-03T07:33:19;5.38;;;3.30;;
31336;SDS011;22846;42.654;23.314;2022-09-03T07:35:45;4.25;;;3.33;;
31336;SDS011;22846;42.654;23.314;2022-09-03T07:38:15;3.63;;;3.20;;
31336;SDS011;22846;42.654;23.314;2022-09-03T07:40:44;3.70;;;3.33;;
31336;SDS011;22846;42.654;23.314;2022-09-03T07:43:09;3.65;;;3.35;;
31336;SDS011;22846;42.654;23.314;2022-09-03T07:45:35;5.85;;;3.45;;
31336;SDS011;22846;42.654;23.314;2022-09-03T07:48:03;4.35;;;3.03;;
31336;SDS011;22846;42.654;23.314;2022-09-03T07:50:28;4.43;;;2.92;;
31336;SDS011;22846;42.654;23.314;2022-09-03T07:52:58;3.88;;;3.33;;
31336;SDS011;22846;42.654;23.314;2022-09-03T07:55:24;6.70;;;3.42;;
31336;SDS011;22846;42.654;23.314;2022-09-03T07:57:54;4.38;;;3.10;;
31336;SDS011;22846;42.654;23.314;2022-09-03T08:00:20;4.43;;;3.15;;
31336;SDS011;22846;42.654;23.314;2022-09-03T08:02:46;8.05;;;3.70;;
31336;SDS011;22846;42.654;23.314;2022-09-03T08:05:11;4.53;;;3.55;;
31336;SDS011;22846;42.654;23.314;2022-09-03T08:07:36;11.65;;;7.45;;
31336;SDS011;22846;42.654;23.314;2022-09-03T08:10:02;43.65;;;31.33;;
31336;SDS011;22846;42.654;23.314;2022-09-03T08:12:29;31.38;;;24.13;;
31336;SDS011;22846;42.654;23.314;2022-09-03T08:14:55;24.45;;;19.80;;
31336;SDS011;22846;42.654;23.314;2022-09-03T08:17:21;15.02;;;11.45;;
31336;SDS011;22846;42.654;23.314;2022-09-03T08:19:47;22.25;;;15.65;;
31336;SDS011;22846;42.654;23.314;2022-09-03T08:22:12;16.38;;;13.82;;
31336;SDS011;22846;42.654;23.314;2022-09-03T08:24:38;15.27;;;11.68;;
31336;SDS011;22846;42.654;23.314;2022-09-03T08:27:03;12.77;;;8.15;;
31336;SDS011;22846;42.654;23.314;2022-09-03T08:29:29;9.52;;;7.95;;
31336;SDS011;22846;42.654;23.314;2022-09-03T08:31:54;11.68;;;9.00;;
31336;SDS011;22846;42.654;23.314;2022-09-03T08:34:19;9.63;;;8.05;;
31336;SDS011;22846;42.654;23.314;2022-09-03T08:36:45;12.63;;;8.52;;
31336;SDS011;22846;42.654;23.314;2022-09-03T08:39:11;12.23;;;7.90;;
31336;SDS011;22846;42.654;23.314;2022-09-03T08:49:19;10.35;;;7.40;;
31336;SDS011;22846;42.654;23.314;2022-09-03T08:51:50;9.88;;;6.65;;
31336;SDS011;22846;42.654;23.314;2022-09-03T08:54:19;9.38;;;6.18;;
31336;SDS011;22846;42.654;23.314;2022-09-03T08:56:49;9.82;;;5.43;;
31336;SDS011;22846;42.654;23.314;2022-09-03T08:59:14;6.65;;;5.45;;
31336;SDS011;22846;42.654;23.314;2022-09-03T09:07:14;10.63;;;5.15;;
31336;SDS011;22846;42.654;23.314;2022-09-03T09:15:13;5.50;;;4.35;;
31336;SDS011;22846;42.654;23.314;2022-09-03T09:20:41;7.60;;;3.88;;
31336;SDS011;22846;42.654;23.314;2022-09-03T09:23:14;6.05;;;4.25;;
31336;SDS011;22846;42.654;23.314;2022-09-03T09:25:49;7.78;;;4.82;;
31336;SDS011;22846;42.654;23.314;2022-09-03T09:28:16;5.25;;;4.28;;
31336;SDS011;22846;42.654;23.314;2022-09-03T09:30:42;4.45;;;4.05;;
31336;SDS011;22846;42.654;23.314;2022-09-03T09:33:09;6.93;;;4.13;;
31336;SDS011;22846;42.654;23.314;2022-09-03T09:35:35;4.00;;;3.42;;
31336;SDS011;22846;42.654;23.314;2022-09-03T09:38:00;6.55;;;4.53;;
31336;SDS011;22846;42.654;23.314;2022-09-03T09:40:36;4.45;;;3.72;;
31336;SDS011;22846;42.654;23.314;2022-09-03T09:45:45;5.40;;;3.15;;
31336;SDS011;22846;42.654;23.314;2022-09-03T09:48:25;5.88;;;3.40;;
31336;SDS011;22846;42.654;23.314;2022-09-03T09:53:47;6.28;;;3.35;;
31336;SDS011;22846;42.654;23.314;2022-09-03T09:56:24;6.40;;;4.40;;
31336;SDS011;22846;42.654;23.314;2022-09-03T09:59:00;8.10;;;4.68;;
31336;SDS011;22846;42.654;23.314;2022-09-03T10:01:35;6.88;;;4.18;;
31336;SDS011;22846;42.654;23.314;2022-09-03T10:06:36;11.48;;;4.30;;
31336;SDS011;22846;42.654;23.314;2022-09-03T10:09:30;13.02;;;4.97;;
31336;SDS011;22846;42.654;23.314;2022-09-03T10:14:43;10.93;;;5.03;;
31336;SDS011;22846;42.654;23.314;2022-09-03T10:17:27;16.00;;;4.90;;
31336;SDS011;22846;42.654;23.314;2022-09-03T10:28:31;16.52;;;6.57;;
31336;SDS011;22846;42.654;23.314;2022-09-03T10:33:41;19.40;;;6.95;;
31336;SDS011;22846;42.654;23.314;2022-09-03T10:38:44;17.08;;;7.10;;
31336;SDS011;22846;42.654;23.314;2022-09-03T10:44:24;16.98;;;6.65;;
31336;SDS011;22846;42.654;23.314;2022-09-03T10:47:27;15.32;;;5.85;;
31336;SDS011;22846;42.654;23.314;2022-09-03T10:50:19;15.80;;;6.68;;
31336;SDS011;22846;42.654;23.314;2022-09-03T10:58:19;12.25;;;5.80;;
31336;SDS011;22846;42.654;23.314;2022-09-03T11:04:09;12.30;;;6.15;;
31336;SDS011;22846;42.654;23.314;2022-09-03T11:09:47;10.05;;;5.53;;
31336;SDS011;22846;42.654;23.314;2022-09-03T11:12:30;8.50;;;5.10;;
31336;SDS011;22846;42.654;23.314;2022-09-03T11:17:32;7.20;;;5.18;;
31336;SDS011;22846;42.654;23.314;2022-09-03T11:22:47;10.70;;;5.13;;
31336;SDS011;22846;42.654;23.314;2022-09-03T11:25:17;10.20;;;5.57;;
31336;SDS011;22846;42.654;23.314;2022-09-03T11:30:45;7.53;;;4.90;;
31336;SDS011;22846;42.654;23.314;2022-09-03T11:33:17;7.13;;;5.22;;
31336;SDS011;22846;42.654;23.314;2022-09-03T11:35:46;5.72;;;4.15;;
31336;SDS011;22846;42.654;23.314;2022-09-03T11:38:25;8.23;;;4.72;;
31336;SDS011;22846;42.654;23.314;2022-09-03T11:43:36;6.57;;;4.72;;
31336;SDS011;22846;42.654;23.314;2022-09-03T11:46:05;7.22;;;3.90;;
31336;SDS011;22846;42.654;23.314;2022-09-03T11:51:16;8.02;;;4.38;;
31336;SDS011;22846;42.654;23.314;2022-09-03T11:53:54;8.88;;;4.85;;
31336;SDS011;22846;42.654;23.314;2022-09-03T11:56:23;8.45;;;4.38;;
31336;SDS011;22846;42.654;23.314;2022-09-03T12:01:37;9.13;;;5.28;;
31336;SDS011;22846;42.654;23.314;2022-09-03T12:04:05;5.97;;;4.07;;
31336;SDS011;22846;42.654;23.314;2022-09-03T12:18:18;6.50;;;4.77;;
31336;SDS011;22846;42.654;23.314;2022-09-03T12:21:09;5.70;;;4.40;;
31336;SDS011;22846;42.654;23.314;2022-09-03T12:23:48;5.65;;;4.07;;
31336;SDS011;22846;42.654;23.314;2022-09-03T12:26:15;5.32;;;4.18;;
31336;SDS011;22846;42.654;23.314;2022-09-03T12:28:47;5.45;;;3.40;;
31336;SDS011;22846;42.654;23.314;2022-09-03T12:31:16;4.80;;;3.45;;
31336;SDS011;22846;42.654;23.314;2022-09-03T12:34:00;4.50;;;3.67;;
31336;SDS011;22846;42.654;23.314;2022-09-03T12:39:07;4.63;;;3.67;;
31336;SDS011;22846;42.654;23.314;2022-09-03T12:41:33;5.95;;;4.13;;
31336;SDS011;22846;42.654;23.314;2022-09-03T12:43:59;6.65;;;3.92;;
31336;SDS011;22846;42.654;23.314;2022-09-03T12:46:26;5.05;;;3.50;;
31336;SDS011;22846;42.654;23.314;2022-09-03T12:49:00;4.95;;;3.47;;
31336;SDS011;22846;42.654;23.314;2022-09-03T12:51:30;4.30;;;3.60;;
31336;SDS011;22846;42.654;23.314;2022-09-03T12:53:58;6.03;;;4.35;;
31336;SDS011;22846;42.654;23.314;2022-09-03T12:56:25;5.05;;;3.72;;
31336;SDS011;22846;42.654;23.314;2022-09-03T12:58:54;5.22;;;4.00;;
31336;SDS011;22846;42.654;23.314;2022-09-03T13:01:28;4.80;;;3.00;;
31336;SDS011;22846;42.654;23.314;2022-09-03T13:04:11;5.97;;;3.70;;
31336;SDS011;22846;42.654;23.314;2022-09-03T13:09:25;4.10;;;3.20;;
31336;SDS011;22846;42.654;23.314;2022-09-03T13:11:54;6.72;;;4.25;;
31336;SDS011;22846;42.654;23.314;2022-09-03T13:14:23;4.65;;;3.78;;
31336;SDS011;22846;42.654;23.314;2022-09-03T13:17:09;4.47;;;3.75;;
31336;SDS011;22846;42.654;23.314;2022-09-03T13:30:55;4.07;;;3.65;;
31336;SDS011;22846;42.654;23.314;2022-09-03T13:33:37;3.80;;;3.40;;
31336;SDS011;22846;42.654;23.314;2022-09-03T13:36:09;3.83;;;3.40;;
31336;SDS011;22846;42.654;23.314;2022-09-03T13:41:31;4.80;;;3.60;;
31336;SDS011;22846;42.654;23.314;2022-09-03T13:44:09;4.15;;;3.38;;
31336;SDS011;22846;42.654;23.314;2022-09-03T13:46:45;5.18;;;3.85;;
31336;SDS011;22846;42.654;23.314;2022-09-03T13:49:20;4.20;;;3.58;;
31336;SDS011;22846;42.654;23.314;2022-09-03T13:52:30;5.30;;;4.05;;
31336;SDS011;22846;42.654;23.314;2022-09-03T13:55:11;5.90;;;3.70;;
31336;SDS011;22846;42.654;23.314;2022-09-03T13:57:56;4.75;;;3.63;;
31336;SDS011;22846;42.654;23.314;2022-09-03T14:00:27;3.80;;;3.35;;
31336;SDS011;22846;42.654;23.314;2022-09-03T14:03:02;4.53;;;3.47;;
31336;SDS011;22846;42.654;23.314;2022-09-03T14:08:44;4.38;;;3.50;;
31336;SDS011;22846;42.654;23.314;2022-09-03T14:17:18;4.15;;;3.45;;
31336;SDS011;22846;42.654;23.314;2022-09-03T14:22:48;4.10;;;3.40;;
31336;SDS011;22846;42.654;23.314;2022-09-03T14:25:24;5.30;;;3.95;;
31336;SDS011;22846;42.654;23.314;2022-09-03T14:27:50;3.80;;;3.40;;
31336;SDS011;22846;42.654;23.314;2022-09-03T14:30:23;4.50;;;3.38;;
31336;SDS011;22846;42.654;23.314;2022-09-03T14:35:53;5.05;;;3.67;;
31336;SDS011;22846;42.654;23.314;2022-09-03T14:40:54;5.10;;;3.38;;
31336;SDS011;22846;42.654;23.314;2022-09-03T15:11:18;3.28;;;2.97;;
31336;SDS011;22846;42.654;23.314;2022-09-03T15:30:08;3.58;;;3.28;;
31336;SDS011;22846;42.654;23.314;2022-09-03T15:40:50;3.70;;;3.35;;
31336;SDS011;22846;42.654;23.314;2022-09-03T15:43:32;4.55;;;3.40;;
31336;SDS011;22846;42.654;23.314;2022-09-03T15:48:58;3.15;;;2.85;;
31336;SDS011;22846;42.654;23.314;2022-09-03T15:51:29;3.38;;;3.08;;
31336;SDS011;22846;42.654;23.314;2022-09-03T15:53:56;3.28;;;2.92;;
31336;SDS011;22846;42.654;23.314;2022-09-03T15:56:29;3.78;;;3.13;;
31336;SDS011;22846;42.654;23.314;2022-09-03T15:58:58;3.60;;;3.30;;
31336;SDS011;22846;42.654;23.314;2022-09-03T16:01:35;4.57;;;3.45;;
31336;SDS011;22846;42.654;23.314;2022-09-03T16:04:18;3.92;;;3.08;;
31336;SDS011;22846;42.654;23.314;2022-09-03T16:07:06;3.58;;;3.13;;
31336;SDS011;22846;42.654;23.314;2022-09-03T16:15:03;4.00;;;3.50;;
31336;SDS011;22846;42.654;23.314;2022-09-03T16:17:50;3.83;;;3.38;;
31336;SDS011;22846;42.654;23.314;2022-09-03T16:20:32;4.30;;;3.70;;
31336;SDS011;22846;42.654;23.314;2022-09-03T16:26:00;3.60;;;3.30;;
31336;SDS011;22846;42.654;23.314;2022-09-03T16:28:34;3.88;;;3.35;;
31336;SDS011;22846;42.654;23.314;2022-09-03T16:34:20;3.78;;;3.33;;
31336;SDS011;22846;42.654;23.314;2022-09-03T16:50:47;4.15;;;3.35;;
31336;SDS011;22846;42.654;23.314;2022-09-03T17:07:39;4.57;;;3.88;;
31336;SDS011;22846;42.654;23.314;2022-09-03T17:18:33;7.28;;;4.35;;
31336;SDS011;22846;42.654;23.314;2022-09-03T17:29:41;10.75;;;4.25;;
31336;SDS011;22846;42.654;23.314;2022-09-03T17:50:56;10.45;;;6.95;;
31336;SDS011;22846;42.654;23.314;2022-09-03T17:53:37;14.25;;;8.32;;
31336;SDS011;22846;42.654;23.314;2022-09-03T17:56:17;13.10;;;8.02;;
31336;SDS011;22846;42.654;23.314;2022-09-03T17:58:50;14.32;;;7.70;;
31336;SDS011;22846;42.654;23.314;2022-09-03T18:01:26;21.45;;;8.38;;
31336;SDS011;22846;42.654;23.314;2022-09-03T18:03:56;10.05;;;6.30;;
31336;SDS011;22846;42.654;23.314;2022-09-03T18:06:35;61.40;;;45.17;;
31336;SDS011;22846;42.654;23.314;2022-09-03T18:11:48;32.38;;;25.77;;
31336;SDS011;22846;42.654;23.314;2022-09-03T18:17:21;17.95;;;13.07;;
31336;SDS011;22846;42.654;23.314;2022-09-03T18:25:27;18.77;;;14.73;;
31336;SDS011;22846;42.654;23.314;2022-09-03T18:28:14;13.98;;;11.52;;
31336;SDS011;22846;42.654;23.314;2022-09-03T18:31:00;16.13;;;9.05;;
31336;SDS011;22846;42.654;23.314;2022-09-03T18:33:44;18.40;;;7.65;;
31336;SDS011;22846;42.654;23.314;2022-09-03T18:36:29;12.40;;;7.10;;
31336;SDS011;22846;42.654;23.314;2022-09-03T19:00:50;27.27;;;20.55;;
31336;SDS011;22846;42.654;23.314;2022-09-03T19:04:12;15.05;;;10.00;;
31336;SDS011;22846;42.654;23.314;2022-09-03T19:07:06;13.40;;;8.80;;
31336;SDS011;22846;42.654;23.314;2022-09-03T19:16:53;11.87;;;8.17;;
31336;SDS011;22846;42.654;23.314;2022-09-03T19:22:08;15.02;;;9.02;;
31336;SDS011;22846;42.654;23.314;2022-09-03T19:25:12;12.23;;;8.05;;
31336;SDS011;22846;42.654;23.314;2022-09-03T19:28:05;9.63;;;7.57;;
31336;SDS011;22846;42.654;23.314;2022-09-03T19:36:55;11.48;;;7.93;;
31336;SDS011;22846;42.654;23.314;2022-09-03T19:40:31;9.48;;;7.28;;
31336;SDS011;22846;42.654;23.314;2022-09-03T19:43:32;8.93;;;6.85;;
31336;SDS011;22846;42.654;23.314;2022-09-03T19:46:16;11.05;;;7.47;;
31336;SDS011;22846;42.654;23.314;2022-09-03T19:49:10;11.45;;;7.03;;
31336;SDS011;22846;42.654;23.314;2022-09-03T19:55:06;8.20;;;6.72;;
31336;SDS011;22846;42.654;23.314;2022-09-03T19:57:53;10.77;;;8.18;;
31336;SDS011;22846;42.654;23.314;2022-09-03T20:00:41;11.23;;;7.88;;
31336;SDS011;22846;42.654;23.314;2022-09-03T20:03:26;11.70;;;7.22;;
31336;SDS011;22846;42.654;23.314;2022-09-03T20:06:11;28.48;;;8.20;;
31336;SDS011;22846;42.654;23.314;2022-09-03T20:09:03;10.15;;;6.75;;
31336;SDS011;22846;42.654;23.314;2022-09-03T20:11:51;9.50;;;6.85;;
31336;SDS011;22846;42.654;23.314;2022-09-03T20:14:22;10.10;;;6.72;;
31336;SDS011;22846;42.654;23.314;2022-09-03T20:30:12;9.32;;;6.50;;
31336;SDS011;22846;42.654;23.314;2022-09-03T20:43:56;10.80;;;6.68;;
31336;SDS011;22846;42.654;23.314;2022-09-03T20:49:27;10.82;;;5.82;;
31336;SDS011;22846;42.654;23.314;2022-09-03T20:52:09;7.93;;;6.00;;
31336;SDS011;22846;42.654;23.314;2022-09-03T21:00:39;6.03;;;4.53;;
31336;SDS011;22846;42.654;23.314;2022-09-03T21:25:32;9.50;;;7.10;;
31336;SDS011;22846;42.654;23.314;2022-09-03T21:28:04;9.48;;;7.20;;
31336;SDS011;22846;42.654;23.314;2022-09-03T21:30:36;9.63;;;5.22;;
31336;SDS011;22846;42.654;23.314;2022-09-03T21:33:08;8.70;;;4.95;;
31336;SDS011;22846;42.654;23.314;2022-09-03T21:35:50;8.50;;;4.78;;
31336;SDS011;22846;42.654;23.314;2022-09-03T21:38:23;5.68;;;3.80;;
31336;SDS011;22846;42.654;23.314;2022-09-03T21:46:52;4.78;;;2.90;;
31336;SDS011;22846;42.654;23.314;2022-09-03T21:49:24;3.60;;;2.97;;
31336;SDS011;22846;42.654;23.314;2022-09-03T21:52:01;7.90;;;5.13;;
31336;SDS011;22846;42.654;23.314;2022-09-03T21:54:32;4.45;;;3.80;;
31336;SDS011;22846;42.654;23.314;2022-09-03T22:04:40;5.95;;;3.80;;
31336;SDS011;22846;42.654;23.314;2022-09-03T22:14:55;3.10;;;2.75;;
31336;SDS011;22846;42.654;23.314;2022-09-03T22:20:19;3.53;;;3.05;;
31336;SDS011;22846;42.654;23.314;2022-09-03T22:22:54;3.30;;;3.00;;
31336;SDS011;22846;42.654;23.314;2022-09-03T22:31:36;6.18;;;3.92;;
31336;SDS011;22846;42.654;23.314;2022-09-03T22:36:49;10.68;;;3.45;;
31336;SDS011;22846;42.654;23.314;2022-09-03T22:50:30;6.95;;;4.30;;
31336;SDS011;22846;42.654;23.314;2022-09-03T22:53:16;7.85;;;4.30;;
31336;SDS011;22846;42.654;23.314;2022-09-03T22:56:11;7.03;;;4.45;;